Lupton, AZ (86508)

3:27 AM MDT on March 30, 2017 (GMT -0600)
Pinon Mesa Networks | | Change Station
Active Advisory: Wind Advisory

Elev 7300 ft 35.25 °N, 108.76 °W | Updated 24 seconds ago

Clear
Clear
38.2 °F
Feels Like 38 °F
N
3.0
Wind Variable Wind from West

Today
High -- | Low -- °F
--% Chance of Precip.
Yesterday
High -- | Low -- °F
Precip. -- in
Pressure 29.98 in
Visibility 10.0 miles
Clouds Clear
Windchill 38 °F
Dew Point 17 °F
Humidity 41%
Rainfall 0.00 in
Snow Depth Not available.
7:05 AM 7:36 PM
Waxing Crescent, 7% visible
METAR KGUP 300853Z AUTO 00000KT 10SM CLR M02/M07 A3011 RMK AO2 SLP150 T10221067 58006
Pressure 29.98 in
Visibility 10.0 miles
Clouds Clear
Windchill 38 °F
Dew Point 17 °F
Humidity 41%
Rainfall 0.00 in
Snow Depth Not available.
7:05 AM 7:36 PM
Waxing Crescent, 7% visible
METAR KGUP 300853Z AUTO 00000KT 10SM CLR M02/M07 A3011 RMK AO2 SLP150 T10221067 58006

Get Your Daily Forecast Email!

Thanks for signing up!

Be on the lookout for a verification email in your inbox.

You'll start receiving severe weather alerts in your inbox..

×

10-Day Weather Forecast

Almanac

Astronomy

Mar. 30, 2017 Rise Set
Actual Time
Civil Twilight
Nautical Twilight
Astronomical Twilight
Moon
Length of Visible Light
Length of Day
Tomorrow will be .
, % of the Moon is Illuminated

Today's Extremes

State Highs State Lows

Community

WunderPhotos

Upload Photos

1,962,540 photos uploaded!

WunderBlog® & News

Nearby

Air Quality

  Air Quality AQ Index Pollutant
Not available.

Snow Depth

Station Depth Elevation

Earthquake Activity

City Distance Mag. Time & Date
Minimum magnitude displayed is 2.5.

Earthquake Activity

City Distance Mag. Time & Date
Minimum magnitude displayed is 2.5.

Coastal Water Temperatures

Place Temperature

Stations

Nearby Weather Stations

Station Location Temp. Windchill Dew Point Humidity Wind Precip. Elev Updated Type
                   

Watches & Warnings

Wind Advisory
Issued: 8:42 PM MDT Mar. 29, 2017 – National Weather Service

... Wind Advisory remains in effect from 2 PM to 11 PM MST
Thursday...

* timing... strong winds will develop Thursday afternoon and
continue through the evening.

* Winds... southwest 20 to 30 mph with gusts 40 to 50 mph.

* Impacts... winds this strong can make travel difficult,
especially for high profile vehicles. Blowing dust could also
reduce visibility over the Chinle Valley including portions of
highways 160 and 191.

Precautionary/preparedness actions...

A Wind Advisory means that sustained winds of 30 to 39 mph... or
gusts from 40 to 57 mph... are expected. Winds this strong can
make driving difficult... especially for high profile vehicles.
Consider securing loose belongings on your property. Additional
weather information is on the web at www.Weather.Gov/Flagstaff.